createdAt,value
2018-07-04T00:02:02.631Z,17.70
2018-07-04T00:04:42.242Z,17.70
2018-07-04T00:07:22.008Z,17.60
2018-07-04T00:10:01.816Z,17.60
2018-07-04T00:12:41.418Z,17.50
2018-07-04T00:15:21.078Z,17.40
2018-07-04T00:18:00.614Z,17.40
2018-07-04T00:20:40.224Z,17.40
2018-07-04T00:23:19.779Z,17.20
2018-07-04T00:25:59.329Z,17.30
2018-07-04T00:28:39.026Z,17.10
2018-07-04T00:31:18.723Z,17.10
2018-07-04T00:33:58.453Z,17.10
2018-07-04T00:36:38.275Z,17.00
2018-07-04T00:39:18.042Z,16.90
2018-07-04T00:41:57.713Z,16.80
2018-07-04T00:44:37.534Z,16.80
2018-07-04T00:47:17.214Z,16.70
2018-07-04T00:49:56.815Z,16.80
2018-07-04T00:52:36.564Z,16.80
2018-07-04T00:55:16.230Z,16.80
2018-07-04T00:57:55.902Z,16.80
2018-07-04T01:00:35.552Z,16.70
2018-07-04T01:03:15.249Z,16.70
2018-07-04T01:05:54.805Z,16.70
2018-07-04T01:08:34.408Z,16.60
2018-07-04T01:11:13.957Z,16.60
2018-07-04T01:13:53.847Z,16.60
2018-07-04T01:16:33.358Z,16.50
2018-07-04T01:19:13.114Z,16.50
2018-07-04T01:21:52.875Z,16.40
2018-07-04T01:24:32.617Z,16.40
2018-07-04T01:27:12.337Z,16.20
2018-07-04T01:29:52.194Z,16.30
2018-07-04T01:32:31.838Z,16.20
2018-07-04T01:35:11.421Z,16.10
2018-07-04T01:37:51.109Z,16.20
2018-07-04T01:40:30.807Z,16.10
2018-07-04T01:43:10.523Z,16.10
2018-07-04T01:45:50.187Z,16.10
2018-07-04T01:48:29.733Z,16.10
2018-07-04T01:51:09.464Z,16.10
2018-07-04T01:53:49.235Z,16.00
2018-07-04T01:56:28.958Z,16.00
2018-07-04T01:59:08.650Z,16.00
2018-07-04T02:01:48.321Z,15.90
2018-07-04T02:04:28.068Z,15.90
2018-07-04T02:07:07.623Z,15.90
2018-07-04T02:09:47.250Z,15.80
2018-07-04T02:12:26.954Z,15.80
2018-07-04T02:15:06.554Z,15.70
2018-07-04T02:17:46.275Z,15.60
2018-07-04T02:20:25.933Z,15.60
2018-07-04T02:23:05.532Z,15.60
2018-07-04T02:25:45.165Z,15.60
2018-07-04T02:28:24.762Z,15.60
2018-07-04T02:31:04.376Z,15.50
2018-07-04T02:33:43.954Z,15.50
2018-07-04T02:36:23.570Z,15.60
2018-07-04T02:39:04.928Z,15.80
2018-07-04T02:41:44.878Z,15.80
2018-07-04T02:44:24.667Z,15.80
2018-07-04T02:47:04.305Z,15.60
2018-07-04T02:49:43.967Z,15.60
2018-07-04T02:52:23.661Z,15.60
2018-07-04T02:55:03.480Z,15.50
2018-07-04T02:57:43.279Z,15.50
2018-07-04T03:00:23.030Z,15.50
2018-07-04T03:03:02.761Z,15.50
2018-07-04T03:05:42.541Z,15.60
2018-07-04T03:08:22.109Z,15.50
2018-07-04T03:11:01.594Z,15.50
2018-07-04T03:13:42.183Z,15.50
2018-07-04T03:16:21.687Z,15.60
2018-07-04T03:19:01.181Z,15.60
2018-07-04T03:21:40.876Z,15.60
2018-07-04T03:24:20.389Z,15.60
2018-07-04T03:26:59.967Z,15.60
2018-07-04T03:29:39.722Z,15.60
2018-07-04T03:32:19.290Z,15.60
2018-07-04T03:34:59.051Z,15.60
2018-07-04T03:37:38.634Z,15.60
2018-07-04T03:40:20.140Z,15.60
2018-07-04T03:43:00.637Z,15.70
2018-07-04T03:45:40.231Z,15.80
2018-07-04T03:48:19.975Z,15.80
2018-07-04T03:50:59.696Z,15.90
2018-07-04T03:53:39.307Z,15.90
2018-07-04T03:56:19.046Z,15.90
2018-07-04T03:58:58.694Z,16.00
2018-07-04T04:01:38.432Z,16.10
2018-07-04T04:04:18.196Z,16.20
2018-07-04T04:06:57.942Z,16.30
2018-07-04T04:09:37.602Z,16.30
2018-07-04T04:12:17.285Z,16.40
2018-07-04T04:14:57.829Z,16.50
2018-07-04T04:17:37.460Z,16.50
2018-07-04T04:20:17.057Z,16.70
2018-07-04T04:22:56.694Z,16.70
2018-07-04T04:25:36.362Z,16.90
2018-07-04T04:28:15.909Z,17.00
2018-07-04T04:30:55.537Z,17.10
2018-07-04T04:33:35.161Z,18.20
2018-07-04T04:36:14.730Z,21.40
2018-07-04T04:38:54.434Z,24.10
2018-07-04T04:41:34.013Z,26.00
2018-07-04T04:44:13.714Z,27.00
2018-07-04T04:46:53.297Z,27.80
2018-07-04T04:49:32.956Z,28.40
2018-07-04T04:52:12.590Z,28.40
2018-07-04T04:54:52.316Z,28.70
2018-07-04T04:57:31.838Z,29.00
2018-07-04T05:00:11.400Z,28.80
2018-07-04T05:02:51.059Z,28.90
2018-07-04T05:05:30.833Z,28.90
2018-07-04T05:08:10.503Z,29.80
2018-07-04T05:10:50.262Z,30.40
2018-07-04T05:13:29.929Z,29.70
2018-07-04T05:16:09.594Z,30.00
2018-07-04T05:18:49.183Z,30.50
2018-07-04T05:21:28.890Z,30.80
2018-07-04T05:24:08.482Z,31.30
2018-07-04T05:26:48.048Z,30.60
2018-07-04T05:29:27.690Z,31.10
2018-07-04T05:32:08.330Z,31.10
2018-07-04T05:34:48.030Z,30.90
2018-07-04T05:37:27.922Z,31.00
2018-07-04T05:40:07.353Z,31.30
2018-07-04T05:45:20.853Z,30.80
2018-07-04T05:48:00.531Z,31.70
2018-07-04T05:50:40.235Z,31.30
2018-07-04T05:53:19.892Z,31.60
2018-07-04T05:55:59.642Z,31.80
2018-07-04T05:58:40.304Z,32.00
2018-07-04T06:01:20.031Z,32.30
2018-07-04T06:03:59.715Z,32.80
2018-07-04T06:06:39.427Z,32.60
2018-07-04T06:09:19.083Z,32.60
2018-07-04T06:11:58.752Z,33.20
2018-07-04T06:14:38.323Z,33.80
2018-07-04T06:17:17.914Z,32.90
2018-07-04T06:19:57.714Z,33.20
2018-07-04T06:22:37.393Z,33.70
2018-07-04T06:25:16.997Z,34.00
2018-07-04T06:27:56.574Z,33.60
2018-07-04T06:30:36.151Z,33.90
2018-07-04T06:33:15.812Z,34.20
2018-07-04T06:35:55.443Z,34.20
2018-07-04T06:38:22.726Z,34.00
2018-07-04T06:40:49.992Z,33.80
2018-07-04T06:43:17.263Z,34.00
2018-07-04T06:45:44.523Z,32.90
2018-07-04T06:48:11.803Z,33.40
2018-07-04T06:50:39.049Z,34.00
2018-07-04T06:53:06.382Z,33.30
2018-07-04T06:55:33.650Z,33.40
2018-07-04T06:58:00.937Z,33.90
2018-07-04T07:00:28.208Z,34.00
2018-07-04T07:03:07.834Z,34.00
2018-07-04T07:05:47.560Z,34.10
2018-07-04T07:08:27.611Z,34.30
2018-07-04T07:11:07.368Z,34.80
2018-07-04T07:13:47.140Z,34.30
2018-07-04T07:16:26.883Z,34.50
2018-07-04T07:19:06.496Z,34.20
2018-07-04T07:21:46.360Z,33.80
2018-07-04T07:24:25.986Z,34.30
2018-07-04T07:27:06.587Z,33.00
2018-07-04T07:29:46.204Z,33.80
2018-07-04T07:32:26.831Z,33.70
2018-07-04T07:35:06.445Z,33.90
2018-07-04T07:37:46.013Z,34.10
2018-07-04T07:40:25.737Z,34.30
2018-07-04T07:43:05.406Z,33.90
2018-07-04T07:45:44.980Z,33.60
2018-07-04T07:48:24.647Z,34.40
2018-07-04T07:51:04.209Z,35.10
2018-07-04T07:53:43.838Z,35.00
2018-07-04T07:56:23.597Z,35.10
2018-07-04T07:59:03.234Z,34.50
2018-07-04T08:01:42.871Z,34.80
2018-07-04T08:48:16.006Z,34.90
2018-07-04T08:50:55.778Z,35.60
2018-07-04T08:53:35.447Z,35.00
2018-07-04T08:56:15.295Z,35.40
2018-07-04T08:58:55.088Z,35.50
2018-07-04T09:01:34.882Z,35.50
2018-07-04T09:04:14.667Z,35.70
2018-07-04T09:06:54.360Z,35.70
2018-07-04T09:09:34.028Z,35.70
2018-07-04T09:12:13.646Z,35.10
2018-07-04T09:14:53.287Z,34.40
2018-07-04T09:17:32.908Z,34.00
2018-07-04T09:20:13.400Z,34.70
2018-07-04T09:22:53.027Z,35.80
2018-07-04T09:25:32.721Z,35.20
2018-07-04T09:30:46.012Z,36.20
2018-07-04T09:33:25.694Z,35.90
2018-07-04T09:36:05.475Z,36.30
2018-07-04T09:38:45.150Z,35.70
2018-07-04T09:41:24.879Z,35.50
2018-07-04T09:44:04.632Z,35.50
2018-07-04T09:46:44.401Z,35.60
2018-07-04T09:49:23.980Z,35.20
2018-07-04T09:52:03.536Z,35.30
2018-07-04T09:54:43.212Z,35.30
2018-07-04T09:57:22.733Z,35.10
2018-07-04T10:00:02.438Z,34.80
2018-07-04T10:02:43.202Z,35.10
2018-07-04T10:05:22.970Z,35.00
2018-07-04T10:08:02.751Z,35.20
2018-07-04T10:10:42.550Z,35.50
2018-07-04T10:13:22.188Z,34.60
2018-07-04T10:16:01.780Z,34.90
2018-07-04T10:18:41.478Z,34.10
2018-07-04T10:21:21.120Z,33.80
2018-07-04T10:24:00.742Z,34.10
2018-07-04T10:26:40.396Z,34.10
2018-07-04T10:29:20.113Z,34.70
2018-07-04T10:31:59.715Z,35.40
2018-07-04T10:34:39.512Z,34.90
2018-07-04T10:37:19.288Z,35.20
2018-07-04T10:39:58.956Z,35.80
2018-07-04T10:42:39.572Z,35.20
2018-07-04T10:45:19.251Z,35.20
2018-07-04T10:47:58.854Z,34.00
2018-07-04T10:50:38.478Z,34.40
2018-07-04T10:53:18.041Z,34.70
2018-07-04T10:55:57.783Z,35.20
2018-07-04T10:58:37.425Z,35.10
2018-07-04T11:01:17.467Z,35.30
2018-07-04T11:03:57.436Z,35.20
2018-07-04T11:06:37.269Z,34.40
2018-07-04T11:09:16.826Z,34.50
2018-07-04T11:11:56.489Z,34.60
2018-07-04T11:14:36.103Z,34.70
2018-07-04T11:17:15.861Z,34.70
2018-07-04T11:19:55.641Z,35.00
2018-07-04T11:22:35.297Z,35.30
2018-07-04T11:25:14.920Z,34.50
2018-07-04T11:27:54.538Z,34.50
2018-07-04T11:30:34.397Z,34.80
2018-07-04T11:33:13.972Z,34.40
2018-07-04T11:35:53.924Z,33.40
2018-07-04T11:38:33.516Z,33.10
2018-07-04T11:41:13.221Z,32.60
2018-07-04T11:43:53.122Z,32.80
2018-07-04T11:46:20.413Z,32.70
2018-07-04T11:48:47.686Z,32.70
2018-07-04T11:51:14.968Z,32.60
2018-07-04T11:53:42.248Z,33.30
2018-07-04T11:56:09.533Z,33.40
2018-07-04T11:58:36.807Z,33.40
2018-07-04T12:01:04.104Z,33.40
2018-07-04T12:03:31.386Z,32.90
2018-07-04T12:06:11.207Z,32.80
2018-07-04T12:11:08.926Z,32.60
2018-07-04T12:13:36.182Z,33.00
2018-07-04T12:16:03.470Z,32.70
2018-07-04T12:18:30.735Z,32.30
2018-07-04T12:20:58.029Z,32.70
2018-07-04T12:23:25.306Z,32.50
2018-07-04T12:25:52.578Z,32.60
2018-07-04T12:28:19.857Z,32.70
2018-07-04T12:30:47.155Z,32.70
2018-07-04T12:35:41.968Z,32.30
2018-07-04T12:38:09.249Z,32.20
2018-07-04T12:40:36.608Z,32.20
2018-07-04T12:43:03.870Z,32.20
2018-07-04T12:45:31.140Z,32.30
2018-07-04T12:47:58.957Z,32.40
2018-07-04T12:50:29.916Z,32.60
2018-07-04T12:52:57.233Z,32.20
2018-07-04T12:55:39.165Z,32.50
2018-07-04T12:58:19.901Z,32.20
2018-07-04T13:00:59.862Z,32.20
2018-07-04T13:03:39.509Z,32.30
2018-07-04T13:06:19.179Z,32.50
2018-07-04T13:08:58.714Z,32.40
2018-07-04T13:11:38.304Z,32.40
2018-07-04T13:14:18.074Z,32.50
2018-07-04T13:16:57.739Z,32.60
2018-07-04T13:22:10.870Z,32.70
2018-07-04T13:24:50.513Z,32.30
2018-07-04T13:27:30.280Z,32.10
2018-07-04T13:30:10.093Z,31.80
2018-07-04T13:32:49.835Z,32.10
2018-07-04T13:35:29.587Z,32.00
2018-07-04T13:38:09.262Z,32.10
2018-07-04T13:40:48.973Z,32.10
2018-07-04T13:43:28.718Z,32.30
2018-07-04T13:46:08.249Z,32.10
2018-07-04T13:48:47.862Z,32.10
2018-07-04T13:51:58.377Z,32.20
2018-07-04T13:54:38.163Z,32.20
2018-07-04T13:57:17.973Z,32.00
2018-07-04T13:59:57.661Z,32.30
2018-07-04T14:02:37.335Z,32.30
2018-07-04T14:05:16.984Z,32.30
2018-07-04T14:07:56.713Z,32.10
2018-07-04T14:10:37.568Z,32.00
2018-07-04T14:13:17.557Z,31.90
2018-07-04T14:15:57.577Z,32.10
2018-07-04T14:18:37.460Z,32.10
2018-07-04T14:21:17.288Z,31.90
2018-07-04T14:23:56.997Z,31.20
2018-07-04T14:26:36.928Z,31.50
2018-07-04T14:29:16.752Z,31.70
2018-07-04T14:31:56.408Z,32.00
2018-07-04T14:34:36.133Z,32.00
2018-07-04T14:37:15.997Z,31.70
2018-07-04T14:39:55.702Z,31.40
2018-07-04T14:42:35.376Z,31.60
2018-07-04T14:45:15.140Z,31.50
2018-07-04T14:48:58.101Z,31.50
2018-07-04T14:51:37.697Z,31.30
2018-07-04T14:54:17.391Z,31.60
2018-07-04T14:56:56.993Z,31.40
2018-07-04T14:59:36.649Z,31.50
2018-07-04T15:02:16.192Z,31.60
2018-07-04T15:04:55.822Z,31.70
2018-07-04T15:07:35.593Z,31.50
2018-07-04T15:10:15.267Z,31.40
2018-07-04T15:12:54.901Z,31.40
2018-07-04T15:15:34.517Z,31.50
2018-07-04T15:18:14.152Z,31.40
2018-07-04T15:20:53.883Z,31.50
2018-07-04T15:23:33.594Z,31.40
2018-07-04T15:26:13.341Z,31.60
2018-07-04T15:28:53.353Z,31.50
2018-07-04T15:31:32.876Z,31.50
2018-07-04T15:34:12.520Z,31.60
2018-07-04T15:36:52.126Z,31.40
2018-07-04T15:39:32.861Z,31.30
2018-07-04T15:42:12.644Z,31.40
2018-07-04T15:44:52.506Z,31.40
2018-07-04T15:47:32.194Z,31.30
2018-07-04T15:50:11.829Z,31.20
2018-07-04T15:52:51.504Z,31.20
2018-07-04T15:55:31.116Z,31.00
2018-07-04T15:58:10.937Z,31.00
2018-07-04T16:00:50.754Z,31.10
2018-07-04T16:03:30.542Z,31.10
2018-07-04T16:06:10.203Z,31.10
2018-07-04T16:08:49.827Z,31.20
2018-07-04T16:11:29.542Z,31.20
2018-07-04T16:14:09.304Z,30.90
2018-07-04T16:16:49.103Z,30.90
2018-07-04T16:19:28.659Z,30.70
2018-07-04T16:22:08.356Z,30.50
2018-07-04T16:24:47.977Z,30.50
2018-07-04T16:27:27.724Z,30.40
2018-07-04T16:30:07.433Z,30.50
2018-07-04T16:32:47.125Z,30.40
2018-07-04T16:35:26.781Z,30.50
2018-07-04T16:38:06.606Z,30.50
2018-07-04T16:40:46.255Z,30.50
2018-07-04T16:43:26.830Z,30.60
2018-07-04T16:46:06.511Z,30.40
2018-07-04T16:48:46.117Z,30.30
2018-07-04T16:51:25.639Z,30.40
2018-07-04T16:54:05.302Z,30.40
2018-07-04T16:56:44.923Z,30.40
2018-07-04T16:59:24.547Z,30.30
2018-07-04T17:02:04.200Z,30.30
2018-07-04T17:04:43.870Z,30.30
2018-07-04T17:07:23.654Z,30.30
2018-07-04T17:10:03.498Z,30.20
2018-07-04T17:12:43.221Z,30.10
2018-07-04T17:15:22.885Z,30.10
2018-07-04T17:18:02.749Z,30.10
2018-07-04T17:20:42.472Z,30.00
2018-07-04T17:23:22.255Z,29.90
2018-07-04T17:26:02.102Z,29.90
2018-07-04T17:28:41.918Z,29.90
2018-07-04T17:31:21.455Z,29.80
2018-07-04T17:34:01.006Z,29.80
2018-07-04T17:36:40.639Z,29.70
2018-07-04T17:39:20.377Z,29.60
2018-07-04T17:42:00.106Z,29.60
2018-07-04T17:44:39.941Z,29.50
2018-07-04T17:47:19.817Z,29.40
2018-07-04T17:49:59.538Z,29.30
2018-07-04T17:52:39.198Z,29.30
2018-07-04T17:55:19.058Z,29.20
2018-07-04T17:57:58.819Z,29.10
2018-07-04T18:00:38.537Z,29.00
2018-07-04T18:03:18.131Z,28.90
2018-07-04T18:05:57.781Z,28.80
2018-07-04T18:08:37.583Z,28.80
2018-07-04T18:11:17.299Z,28.70
2018-07-04T18:13:56.941Z,28.50
2018-07-04T18:16:36.532Z,28.50
2018-07-04T18:19:16.160Z,28.40
2018-07-04T18:21:55.913Z,28.30
2018-07-04T18:24:35.556Z,28.20
2018-07-04T18:27:15.153Z,28.10
2018-07-04T18:29:54.830Z,28.00
2018-07-04T18:32:34.523Z,27.90
2018-07-04T18:35:14.035Z,27.80
2018-07-04T18:37:53.719Z,27.70
2018-07-04T18:40:33.341Z,27.50
2018-07-04T18:43:12.950Z,27.40
2018-07-04T18:45:52.682Z,27.40
2018-07-04T18:48:38.904Z,27.30
2018-07-04T18:51:34.562Z,27.30
2018-07-04T18:54:14.402Z,27.30
2018-07-04T18:56:54.571Z,27.10
2018-07-04T18:59:35.129Z,27.00
2018-07-04T19:02:14.887Z,26.80
2018-07-04T19:04:54.559Z,26.70
2018-07-04T19:07:34.218Z,26.50
2018-07-04T19:10:13.983Z,26.50
2018-07-04T19:12:53.736Z,26.30
2018-07-04T19:15:34.590Z,26.30
2018-07-04T19:18:14.271Z,26.10
2018-07-04T19:20:56.000Z,25.90
2018-07-04T19:23:36.372Z,25.70
2018-07-04T19:26:16.065Z,25.70
2018-07-04T19:28:55.812Z,25.40
2018-07-04T19:31:54.456Z,25.40
2018-07-04T19:36:19.276Z,25.20
2018-07-04T19:48:32.331Z,24.60
2018-07-04T20:18:09.240Z,23.40
2018-07-04T20:52:01.664Z,23.20
2018-07-04T21:43:01.270Z,22.50
2018-07-04T21:45:40.859Z,21.40
2018-07-04T21:48:20.603Z,21.30
2018-07-04T21:51:00.355Z,21.20
2018-07-04T21:53:39.993Z,21.20
2018-07-04T21:59:54.470Z,21.00
2018-07-04T22:02:34.115Z,20.90
2018-07-04T22:05:13.793Z,20.80
2018-07-04T22:07:53.432Z,20.70
2018-07-04T22:10:33.097Z,20.60
2018-07-04T22:13:12.738Z,20.50
2018-07-04T22:15:52.446Z,20.30
2018-07-04T22:18:32.102Z,20.30
2018-07-04T22:21:11.769Z,20.20
2018-07-04T22:23:51.438Z,20.10
2018-07-04T22:26:31.061Z,20.10
2018-07-04T22:29:10.691Z,20.00
2018-07-04T22:31:50.276Z,19.90
2018-07-04T22:37:04.002Z,19.70
2018-07-04T22:39:43.847Z,19.60
2018-07-04T22:42:23.604Z,19.50
2018-07-04T22:45:04.819Z,19.50
2018-07-04T22:47:44.381Z,19.50
2018-07-04T22:50:24.081Z,19.40
2018-07-04T22:53:03.692Z,19.40
2018-07-04T22:55:43.450Z,19.30
2018-07-04T22:58:23.108Z,19.30
2018-07-04T23:01:02.759Z,19.30
2018-07-04T23:03:42.499Z,19.20
2018-07-04T23:06:22.359Z,19.10
2018-07-04T23:09:02.100Z,19.10
2018-07-04T23:11:41.656Z,19.00
2018-07-04T23:14:21.262Z,19.00
2018-07-04T23:17:00.922Z,18.90
2018-07-04T23:19:40.658Z,18.90
2018-07-04T23:22:20.504Z,18.90
2018-07-04T23:25:00.284Z,18.80
2018-07-04T23:27:40.136Z,18.80
2018-07-04T23:30:19.858Z,18.80
2018-07-04T23:32:59.672Z,18.70
2018-07-04T23:35:39.357Z,18.60
2018-07-04T23:38:19.090Z,18.60
2018-07-04T23:40:58.734Z,18.60
2018-07-04T23:43:38.575Z,18.60
2018-07-04T23:46:18.454Z,18.60
2018-07-04T23:48:58.152Z,18.60
2018-07-04T23:51:37.827Z,18.60
2018-07-04T23:54:17.284Z,18.60
2018-07-04T23:56:56.805Z,18.60
2018-07-04T23:59:36.534Z,18.60
